sensor_id;sensor_type;location;lat;lon;timestamp;P1;durP1;ratioP1;P2;durP2;ratioP2
17510;SDS011;8873;48.818;9.422;2023-08-24T00:00:31;7.70;;;6.90;;
17510;SDS011;8873;48.818;9.422;2023-08-24T00:03:01;12.65;;;7.20;;
17510;SDS011;8873;48.818;9.422;2023-08-24T00:05:32;8.13;;;6.28;;
17510;SDS011;8873;48.818;9.422;2023-08-24T00:08:03;9.93;;;7.05;;
17510;SDS011;8873;48.818;9.422;2023-08-24T00:10:37;9.15;;;6.82;;
17510;SDS011;8873;48.818;9.422;2023-08-24T00:13:05;17.15;;;7.10;;
17510;SDS011;8873;48.818;9.422;2023-08-24T00:15:35;7.80;;;6.38;;
17510;SDS011;8873;48.818;9.422;2023-08-24T00:18:09;8.90;;;6.90;;
17510;SDS011;8873;48.818;9.422;2023-08-24T00:20:39;9.68;;;7.43;;
17510;SDS011;8873;48.818;9.422;2023-08-24T00:23:08;8.48;;;7.10;;
17510;SDS011;8873;48.818;9.422;2023-08-24T00:25:35;16.35;;;7.28;;
17510;SDS011;8873;48.818;9.422;2023-08-24T00:28:04;9.95;;;7.93;;
17510;SDS011;8873;48.818;9.422;2023-08-24T00:30:32;9.32;;;7.22;;
17510;SDS011;8873;48.818;9.422;2023-08-24T00:33:01;9.20;;;7.30;;
17510;SDS011;8873;48.818;9.422;2023-08-24T00:35:30;10.25;;;7.32;;
17510;SDS011;8873;48.818;9.422;2023-08-24T00:37:58;13.77;;;7.75;;
17510;SDS011;8873;48.818;9.422;2023-08-24T00:40:31;10.48;;;7.15;;
17510;SDS011;8873;48.818;9.422;2023-08-24T00:43:00;12.95;;;7.93;;
17510;SDS011;8873;48.818;9.422;2023-08-24T00:45:28;9.98;;;7.45;;
17510;SDS011;8873;48.818;9.422;2023-08-24T00:47:59;11.95;;;7.80;;
17510;SDS011;8873;48.818;9.422;2023-08-24T00:50:27;13.88;;;7.53;;
17510;SDS011;8873;48.818;9.422;2023-08-24T00:52:58;11.15;;;7.70;;
17510;SDS011;8873;48.818;9.422;2023-08-24T00:55:26;10.20;;;7.05;;
17510;SDS011;8873;48.818;9.422;2023-08-24T00:57:54;10.73;;;7.45;;
17510;SDS011;8873;48.818;9.422;2023-08-24T01:00:25;10.18;;;7.45;;
17510;SDS011;8873;48.818;9.422;2023-08-24T01:02:56;10.23;;;7.20;;
17510;SDS011;8873;48.818;9.422;2023-08-24T01:05:27;10.85;;;7.47;;
17510;SDS011;8873;48.818;9.422;2023-08-24T01:07:57;10.15;;;7.03;;
17510;SDS011;8873;48.818;9.422;2023-08-24T01:10:26;8.77;;;7.40;;
17510;SDS011;8873;48.818;9.422;2023-08-24T01:13:00;9.50;;;7.80;;
17510;SDS011;8873;48.818;9.422;2023-08-24T01:15:32;9.90;;;7.72;;
17510;SDS011;8873;48.818;9.422;2023-08-24T01:18:08;10.45;;;8.00;;
17510;SDS011;8873;48.818;9.422;2023-08-24T01:20:42;9.90;;;7.97;;
17510;SDS011;8873;48.818;9.422;2023-08-24T01:23:21;9.98;;;7.32;;
17510;SDS011;8873;48.818;9.422;2023-08-24T01:25:51;10.48;;;7.90;;
17510;SDS011;8873;48.818;9.422;2023-08-24T01:28:21;10.95;;;8.10;;
17510;SDS011;8873;48.818;9.422;2023-08-24T01:30:55;11.15;;;8.07;;
17510;SDS011;8873;48.818;9.422;2023-08-24T01:33:34;10.95;;;7.70;;
17510;SDS011;8873;48.818;9.422;2023-08-24T01:36:04;10.43;;;7.88;;
17510;SDS011;8873;48.818;9.422;2023-08-24T01:38:37;11.57;;;7.43;;
17510;SDS011;8873;48.818;9.422;2023-08-24T01:41:09;13.30;;;8.18;;
17510;SDS011;8873;48.818;9.422;2023-08-24T01:43:40;8.27;;;7.45;;
17510;SDS011;8873;48.818;9.422;2023-08-24T01:46:14;8.88;;;7.57;;
17510;SDS011;8873;48.818;9.422;2023-08-24T01:48:42;10.77;;;7.60;;
17510;SDS011;8873;48.818;9.422;2023-08-24T01:51:10;11.15;;;8.38;;
17510;SDS011;8873;48.818;9.422;2023-08-24T01:53:39;13.43;;;8.73;;
17510;SDS011;8873;48.818;9.422;2023-08-24T01:56:10;11.27;;;8.35;;
17510;SDS011;8873;48.818;9.422;2023-08-24T01:58:39;10.95;;;8.32;;
17510;SDS011;8873;48.818;9.422;2023-08-24T02:01:08;10.45;;;7.82;;
17510;SDS011;8873;48.818;9.422;2023-08-24T02:03:37;13.00;;;8.70;;
17510;SDS011;8873;48.818;9.422;2023-08-24T02:06:05;10.35;;;7.60;;
17510;SDS011;8873;48.818;9.422;2023-08-24T02:08:38;12.00;;;7.97;;
17510;SDS011;8873;48.818;9.422;2023-08-24T02:11:08;11.55;;;8.23;;
17510;SDS011;8873;48.818;9.422;2023-08-24T02:13:35;9.52;;;8.27;;
17510;SDS011;8873;48.818;9.422;2023-08-24T02:16:05;8.93;;;8.00;;
17510;SDS011;8873;48.818;9.422;2023-08-24T02:18:34;9.45;;;7.47;;
17510;SDS011;8873;48.818;9.422;2023-08-24T02:21:06;8.77;;;7.63;;
17510;SDS011;8873;48.818;9.422;2023-08-24T02:23:34;14.50;;;7.95;;
17510;SDS011;8873;48.818;9.422;2023-08-24T02:26:01;11.10;;;8.07;;
17510;SDS011;8873;48.818;9.422;2023-08-24T02:28:30;11.38;;;8.10;;
17510;SDS011;8873;48.818;9.422;2023-08-24T02:31:00;9.93;;;8.70;;
17510;SDS011;8873;48.818;9.422;2023-08-24T02:33:29;10.82;;;8.27;;
17510;SDS011;8873;48.818;9.422;2023-08-24T02:35:56;9.73;;;7.82;;
17510;SDS011;8873;48.818;9.422;2023-08-24T02:38:24;13.27;;;9.15;;
17510;SDS011;8873;48.818;9.422;2023-08-24T02:41:02;13.38;;;8.65;;
17510;SDS011;8873;48.818;9.422;2023-08-24T02:43:35;12.35;;;8.65;;
17510;SDS011;8873;48.818;9.422;2023-08-24T02:46:04;11.45;;;8.32;;
17510;SDS011;8873;48.818;9.422;2023-08-24T02:48:33;13.55;;;8.60;;
17510;SDS011;8873;48.818;9.422;2023-08-24T02:51:03;10.30;;;8.25;;
17510;SDS011;8873;48.818;9.422;2023-08-24T02:53:31;13.00;;;8.63;;
17510;SDS011;8873;48.818;9.422;2023-08-24T02:55:59;13.63;;;9.05;;
17510;SDS011;8873;48.818;9.422;2023-08-24T02:58:26;11.18;;;7.50;;
17510;SDS011;8873;48.818;9.422;2023-08-24T03:00:54;13.50;;;9.38;;
17510;SDS011;8873;48.818;9.422;2023-08-24T03:03:22;10.63;;;9.05;;
17510;SDS011;8873;48.818;9.422;2023-08-24T03:05:55;15.68;;;8.77;;
17510;SDS011;8873;48.818;9.422;2023-08-24T03:08:26;10.82;;;8.38;;
17510;SDS011;8873;48.818;9.422;2023-08-24T03:10:59;13.70;;;8.98;;
17510;SDS011;8873;48.818;9.422;2023-08-24T03:13:27;17.30;;;9.20;;
17510;SDS011;8873;48.818;9.422;2023-08-24T03:16:02;11.35;;;8.55;;
17510;SDS011;8873;48.818;9.422;2023-08-24T03:18:31;11.95;;;8.40;;
17510;SDS011;8873;48.818;9.422;2023-08-24T03:21:02;11.05;;;8.23;;
17510;SDS011;8873;48.818;9.422;2023-08-24T03:23:30;18.10;;;8.57;;
17510;SDS011;8873;48.818;9.422;2023-08-24T03:25:58;10.98;;;8.63;;
17510;SDS011;8873;48.818;9.422;2023-08-24T03:28:25;12.07;;;8.82;;
17510;SDS011;8873;48.818;9.422;2023-08-24T03:30:53;11.00;;;8.20;;
17510;SDS011;8873;48.818;9.422;2023-08-24T03:33:22;11.80;;;8.73;;
17510;SDS011;8873;48.818;9.422;2023-08-24T03:35:49;12.63;;;8.68;;
17510;SDS011;8873;48.818;9.422;2023-08-24T03:38:21;13.63;;;8.50;;
17510;SDS011;8873;48.818;9.422;2023-08-24T03:40:51;11.35;;;8.75;;
17510;SDS011;8873;48.818;9.422;2023-08-24T03:43:19;12.95;;;9.52;;
17510;SDS011;8873;48.818;9.422;2023-08-24T03:45:50;12.38;;;8.57;;
17510;SDS011;8873;48.818;9.422;2023-08-24T03:48:18;13.90;;;8.10;;
17510;SDS011;8873;48.818;9.422;2023-08-24T03:50:46;14.82;;;8.77;;
17510;SDS011;8873;48.818;9.422;2023-08-24T03:53:15;16.55;;;8.73;;
17510;SDS011;8873;48.818;9.422;2023-08-24T03:55:48;12.98;;;8.48;;
17510;SDS011;8873;48.818;9.422;2023-08-24T03:58:18;12.88;;;8.43;;
17510;SDS011;8873;48.818;9.422;2023-08-24T04:00:48;13.05;;;9.07;;
17510;SDS011;8873;48.818;9.422;2023-08-24T04:03:16;12.57;;;9.50;;
17510;SDS011;8873;48.818;9.422;2023-08-24T04:05:45;13.10;;;9.05;;
17510;SDS011;8873;48.818;9.422;2023-08-24T04:08:14;14.43;;;8.98;;
17510;SDS011;8873;48.818;9.422;2023-08-24T04:10:42;14.48;;;9.48;;
17510;SDS011;8873;48.818;9.422;2023-08-24T04:13:11;10.07;;;8.43;;
17510;SDS011;8873;48.818;9.422;2023-08-24T04:15:44;13.98;;;9.80;;
17510;SDS011;8873;48.818;9.422;2023-08-24T04:18:24;14.18;;;9.07;;
17510;SDS011;8873;48.818;9.422;2023-08-24T04:20:52;14.35;;;9.40;;
17510;SDS011;8873;48.818;9.422;2023-08-24T04:23:33;14.25;;;8.88;;
17510;SDS011;8873;48.818;9.422;2023-08-24T04:26:00;11.90;;;9.27;;
17510;SDS011;8873;48.818;9.422;2023-08-24T04:28:29;14.35;;;8.93;;
17510;SDS011;8873;48.818;9.422;2023-08-24T04:30:58;9.50;;;8.00;;
17510;SDS011;8873;48.818;9.422;2023-08-24T04:33:26;15.13;;;8.80;;
17510;SDS011;8873;48.818;9.422;2023-08-24T04:35:57;13.52;;;9.05;;
17510;SDS011;8873;48.818;9.422;2023-08-24T04:38:26;8.98;;;7.97;;
17510;SDS011;8873;48.818;9.422;2023-08-24T04:40:54;10.68;;;8.13;;
17510;SDS011;8873;48.818;9.422;2023-08-24T04:43:22;12.93;;;9.00;;
17510;SDS011;8873;48.818;9.422;2023-08-24T04:45:55;10.32;;;8.27;;
17510;SDS011;8873;48.818;9.422;2023-08-24T04:48:24;9.68;;;7.53;;
17510;SDS011;8873;48.818;9.422;2023-08-24T04:50:52;12.25;;;8.50;;
17510;SDS011;8873;48.818;9.422;2023-08-24T04:53:23;11.13;;;8.45;;
17510;SDS011;8873;48.818;9.422;2023-08-24T04:55:55;12.27;;;8.02;;
17510;SDS011;8873;48.818;9.422;2023-08-24T04:58:26;10.25;;;8.02;;
17510;SDS011;8873;48.818;9.422;2023-08-24T05:00:58;13.77;;;8.55;;
17510;SDS011;8873;48.818;9.422;2023-08-24T05:03:26;11.50;;;8.02;;
17510;SDS011;8873;48.818;9.422;2023-08-24T05:05:53;10.23;;;8.75;;
17510;SDS011;8873;48.818;9.422;2023-08-24T05:08:21;8.93;;;7.93;;
17510;SDS011;8873;48.818;9.422;2023-08-24T05:10:49;14.38;;;9.07;;
17510;SDS011;8873;48.818;9.422;2023-08-24T05:13:19;10.27;;;8.30;;
17510;SDS011;8873;48.818;9.422;2023-08-24T05:15:47;16.00;;;8.93;;
17510;SDS011;8873;48.818;9.422;2023-08-24T05:18:17;13.77;;;7.97;;
17510;SDS011;8873;48.818;9.422;2023-08-24T05:20:44;12.98;;;7.97;;
17510;SDS011;8873;48.818;9.422;2023-08-24T05:23:16;10.10;;;8.48;;
17510;SDS011;8873;48.818;9.422;2023-08-24T05:25:47;8.80;;;7.68;;
17510;SDS011;8873;48.818;9.422;2023-08-24T05:28:15;10.02;;;8.30;;
17510;SDS011;8873;48.818;9.422;2023-08-24T05:30:43;12.55;;;7.72;;
17510;SDS011;8873;48.818;9.422;2023-08-24T05:33:11;13.45;;;8.40;;
17510;SDS011;8873;48.818;9.422;2023-08-24T05:35:41;10.20;;;7.65;;
17510;SDS011;8873;48.818;9.422;2023-08-24T05:38:23;11.07;;;7.85;;
17510;SDS011;8873;48.818;9.422;2023-08-24T05:40:53;13.18;;;7.57;;
17510;SDS011;8873;48.818;9.422;2023-08-24T05:43:21;13.23;;;8.50;;
17510;SDS011;8873;48.818;9.422;2023-08-24T05:45:50;10.00;;;8.05;;
17510;SDS011;8873;48.818;9.422;2023-08-24T05:48:19;12.48;;;7.38;;
17510;SDS011;8873;48.818;9.422;2023-08-24T05:50:48;9.85;;;7.07;;
17510;SDS011;8873;48.818;9.422;2023-08-24T05:53:24;9.82;;;6.95;;
17510;SDS011;8873;48.818;9.422;2023-08-24T05:55:57;9.95;;;6.85;;
17510;SDS011;8873;48.818;9.422;2023-08-24T05:58:24;16.27;;;7.30;;
17510;SDS011;8873;48.818;9.422;2023-08-24T06:00:56;8.65;;;7.05;;
17510;SDS011;8873;48.818;9.422;2023-08-24T06:03:25;10.68;;;6.95;;
17510;SDS011;8873;48.818;9.422;2023-08-24T06:05:55;10.05;;;6.50;;
17510;SDS011;8873;48.818;9.422;2023-08-24T06:08:27;7.55;;;6.57;;
17510;SDS011;8873;48.818;9.422;2023-08-24T06:10:55;12.88;;;7.07;;
17510;SDS011;8873;48.818;9.422;2023-08-24T06:13:26;8.43;;;6.43;;
17510;SDS011;8873;48.818;9.422;2023-08-24T06:15:56;8.43;;;6.60;;
17510;SDS011;8873;48.818;9.422;2023-08-24T06:18:24;7.85;;;6.65;;
17510;SDS011;8873;48.818;9.422;2023-08-24T06:20:52;8.38;;;6.43;;
17510;SDS011;8873;48.818;9.422;2023-08-24T06:23:21;9.75;;;6.82;;
17510;SDS011;8873;48.818;9.422;2023-08-24T06:25:49;7.90;;;6.65;;
17510;SDS011;8873;48.818;9.422;2023-08-24T06:28:17;12.57;;;6.53;;
17510;SDS011;8873;48.818;9.422;2023-08-24T06:30:45;9.55;;;6.85;;
17510;SDS011;8873;48.818;9.422;2023-08-24T06:33:16;10.93;;;6.10;;
17510;SDS011;8873;48.818;9.422;2023-08-24T06:35:44;11.40;;;7.30;;
17510;SDS011;8873;48.818;9.422;2023-08-24T06:38:13;12.50;;;5.97;;
17510;SDS011;8873;48.818;9.422;2023-08-24T06:40:42;7.03;;;5.97;;
17510;SDS011;8873;48.818;9.422;2023-08-24T06:43:12;6.78;;;6.07;;
17510;SDS011;8873;48.818;9.422;2023-08-24T06:45:45;10.45;;;6.60;;
17510;SDS011;8873;48.818;9.422;2023-08-24T06:48:12;8.15;;;6.25;;
17510;SDS011;8873;48.818;9.422;2023-08-24T06:50:40;10.57;;;6.35;;
17510;SDS011;8873;48.818;9.422;2023-08-24T06:53:08;6.88;;;5.57;;
17510;SDS011;8873;48.818;9.422;2023-08-24T06:55:37;7.28;;;5.25;;
17510;SDS011;8873;48.818;9.422;2023-08-24T06:58:13;6.70;;;6.00;;
17510;SDS011;8873;48.818;9.422;2023-08-24T07:00:42;7.10;;;6.15;;
17510;SDS011;8873;48.818;9.422;2023-08-24T07:03:11;7.28;;;5.45;;
17510;SDS011;8873;48.818;9.422;2023-08-24T07:05:39;6.43;;;5.78;;
17510;SDS011;8873;48.818;9.422;2023-08-24T07:08:07;7.32;;;6.07;;
17510;SDS011;8873;48.818;9.422;2023-08-24T07:10:35;12.45;;;5.60;;
17510;SDS011;8873;48.818;9.422;2023-08-24T07:13:04;9.63;;;5.63;;
17510;SDS011;8873;48.818;9.422;2023-08-24T07:15:34;8.98;;;5.10;;
17510;SDS011;8873;48.818;9.422;2023-08-24T07:18:02;6.22;;;5.47;;
17510;SDS011;8873;48.818;9.422;2023-08-24T07:20:34;8.40;;;5.35;;
17510;SDS011;8873;48.818;9.422;2023-08-24T07:23:02;8.40;;;5.47;;
17510;SDS011;8873;48.818;9.422;2023-08-24T07:25:33;7.20;;;5.32;;
17510;SDS011;8873;48.818;9.422;2023-08-24T07:28:01;7.35;;;5.85;;
17510;SDS011;8873;48.818;9.422;2023-08-24T07:30:30;6.28;;;5.32;;
17510;SDS011;8873;48.818;9.422;2023-08-24T07:33:04;8.48;;;5.85;;
17510;SDS011;8873;48.818;9.422;2023-08-24T07:35:34;6.32;;;5.72;;
17510;SDS011;8873;48.818;9.422;2023-08-24T07:38:01;7.95;;;5.68;;
17510;SDS011;8873;48.818;9.422;2023-08-24T07:40:31;8.50;;;6.03;;
17510;SDS011;8873;48.818;9.422;2023-08-24T07:43:01;8.13;;;5.80;;
17510;SDS011;8873;48.818;9.422;2023-08-24T07:45:30;7.32;;;5.93;;
17510;SDS011;8873;48.818;9.422;2023-08-24T07:48:00;7.88;;;5.60;;
17510;SDS011;8873;48.818;9.422;2023-08-24T07:50:33;7.55;;;5.97;;
17510;SDS011;8873;48.818;9.422;2023-08-24T07:53:09;5.75;;;5.25;;
17510;SDS011;8873;48.818;9.422;2023-08-24T07:55:38;7.85;;;5.70;;
17510;SDS011;8873;48.818;9.422;2023-08-24T07:58:06;10.68;;;6.25;;
17510;SDS011;8873;48.818;9.422;2023-08-24T08:00:35;7.85;;;5.68;;
17510;SDS011;8873;48.818;9.422;2023-08-24T08:03:03;7.45;;;5.78;;
17510;SDS011;8873;48.818;9.422;2023-08-24T08:05:34;8.02;;;6.00;;
17510;SDS011;8873;48.818;9.422;2023-08-24T08:08:02;9.68;;;6.35;;
17510;SDS011;8873;48.818;9.422;2023-08-24T08:10:31;8.90;;;5.82;;
17510;SDS011;8873;48.818;9.422;2023-08-24T08:12:59;11.75;;;6.25;;
17510;SDS011;8873;48.818;9.422;2023-08-24T08:15:26;6.65;;;5.50;;
17510;SDS011;8873;48.818;9.422;2023-08-24T08:17:55;8.70;;;6.07;;
17510;SDS011;8873;48.818;9.422;2023-08-24T08:20:23;8.43;;;5.80;;
17510;SDS011;8873;48.818;9.422;2023-08-24T08:22:53;6.97;;;5.75;;
17510;SDS011;8873;48.818;9.422;2023-08-24T08:25:22;11.50;;;5.53;;
17510;SDS011;8873;48.818;9.422;2023-08-24T08:27:49;6.82;;;5.70;;
17510;SDS011;8873;48.818;9.422;2023-08-24T08:30:20;7.75;;;5.50;;
17510;SDS011;8873;48.818;9.422;2023-08-24T08:32:47;5.65;;;5.18;;
17510;SDS011;8873;48.818;9.422;2023-08-24T08:35:17;8.57;;;5.45;;
17510;SDS011;8873;48.818;9.422;2023-08-24T08:37:45;5.90;;;5.15;;
17510;SDS011;8873;48.818;9.422;2023-08-24T08:40:18;9.45;;;5.35;;
17510;SDS011;8873;48.818;9.422;2023-08-24T08:42:49;6.85;;;5.43;;
17510;SDS011;8873;48.818;9.422;2023-08-24T08:45:24;7.82;;;5.18;;
17510;SDS011;8873;48.818;9.422;2023-08-24T08:48:07;5.97;;;5.05;;
17510;SDS011;8873;48.818;9.422;2023-08-24T08:50:57;8.93;;;4.90;;
17510;SDS011;8873;48.818;9.422;2023-08-24T08:53:27;5.63;;;4.72;;
17510;SDS011;8873;48.818;9.422;2023-08-24T08:56:00;6.63;;;5.22;;
17510;SDS011;8873;48.818;9.422;2023-08-24T08:58:31;7.05;;;5.15;;
17510;SDS011;8873;48.818;9.422;2023-08-24T09:00:59;8.38;;;5.55;;
17510;SDS011;8873;48.818;9.422;2023-08-24T09:03:33;6.82;;;4.93;;
17510;SDS011;8873;48.818;9.422;2023-08-24T09:06:03;9.23;;;4.95;;
17510;SDS011;8873;48.818;9.422;2023-08-24T09:08:33;9.00;;;5.70;;
17510;SDS011;8873;48.818;9.422;2023-08-24T09:11:03;8.05;;;4.97;;
17510;SDS011;8873;48.818;9.422;2023-08-24T09:13:37;6.13;;;5.05;;
17510;SDS011;8873;48.818;9.422;2023-08-24T09:16:08;9.80;;;4.80;;
17510;SDS011;8873;48.818;9.422;2023-08-24T09:18:42;9.13;;;5.40;;
17510;SDS011;8873;48.818;9.422;2023-08-24T09:21:11;9.30;;;5.00;;
17510;SDS011;8873;48.818;9.422;2023-08-24T09:23:43;8.48;;;4.55;;
17510;SDS011;8873;48.818;9.422;2023-08-24T09:26:12;7.80;;;4.60;;
17510;SDS011;8873;48.818;9.422;2023-08-24T09:28:43;9.50;;;5.22;;
17510;SDS011;8873;48.818;9.422;2023-08-24T09:31:11;6.70;;;5.10;;
17510;SDS011;8873;48.818;9.422;2023-08-24T09:33:42;5.40;;;4.28;;
17510;SDS011;8873;48.818;9.422;2023-08-24T09:36:13;5.45;;;4.55;;
17510;SDS011;8873;48.818;9.422;2023-08-24T09:38:46;6.85;;;4.88;;
17510;SDS011;8873;48.818;9.422;2023-08-24T09:41:17;6.72;;;4.90;;
17510;SDS011;8873;48.818;9.422;2023-08-24T09:43:45;7.03;;;5.10;;
17510;SDS011;8873;48.818;9.422;2023-08-24T09:46:12;7.25;;;4.55;;
17510;SDS011;8873;48.818;9.422;2023-08-24T09:48:52;5.25;;;4.53;;
17510;SDS011;8873;48.818;9.422;2023-08-24T09:51:20;4.95;;;4.55;;
17510;SDS011;8873;48.818;9.422;2023-08-24T09:53:51;7.03;;;4.25;;
17510;SDS011;8873;48.818;9.422;2023-08-24T09:56:21;7.65;;;4.40;;
17510;SDS011;8873;48.818;9.422;2023-08-24T09:58:51;8.65;;;3.95;;
17510;SDS011;8873;48.818;9.422;2023-08-24T10:01:18;5.20;;;4.35;;
17510;SDS011;8873;48.818;9.422;2023-08-24T10:03:47;5.05;;;4.60;;
17510;SDS011;8873;48.818;9.422;2023-08-24T10:06:19;6.80;;;4.75;;
17510;SDS011;8873;48.818;9.422;2023-08-24T10:08:51;5.40;;;4.22;;
17510;SDS011;8873;48.818;9.422;2023-08-24T10:11:26;4.50;;;4.10;;
17510;SDS011;8873;48.818;9.422;2023-08-24T10:14:04;5.93;;;4.28;;
17510;SDS011;8873;48.818;9.422;2023-08-24T10:16:36;5.28;;;4.60;;
17510;SDS011;8873;48.818;9.422;2023-08-24T10:19:04;5.20;;;4.72;;
17510;SDS011;8873;48.818;9.422;2023-08-24T10:21:31;7.10;;;4.90;;
17510;SDS011;8873;48.818;9.422;2023-08-24T10:23:59;6.13;;;4.85;;
17510;SDS011;8873;48.818;9.422;2023-08-24T10:26:30;5.70;;;4.50;;
17510;SDS011;8873;48.818;9.422;2023-08-24T10:29:00;6.88;;;4.40;;
17510;SDS011;8873;48.818;9.422;2023-08-24T10:31:28;5.05;;;4.32;;
17510;SDS011;8873;48.818;9.422;2023-08-24T10:33:56;4.82;;;4.43;;
17510;SDS011;8873;48.818;9.422;2023-08-24T10:36:24;4.85;;;4.43;;
17510;SDS011;8873;48.818;9.422;2023-08-24T10:38:55;6.68;;;4.75;;
17510;SDS011;8873;48.818;9.422;2023-08-24T10:41:25;5.40;;;4.90;;
17510;SDS011;8873;48.818;9.422;2023-08-24T10:44:03;5.90;;;4.40;;
17510;SDS011;8873;48.818;9.422;2023-08-24T10:46:34;5.20;;;4.80;;
17510;SDS011;8873;48.818;9.422;2023-08-24T10:49:03;4.78;;;4.38;;
17510;SDS011;8873;48.818;9.422;2023-08-24T10:51:36;6.32;;;4.70;;
17510;SDS011;8873;48.818;9.422;2023-08-24T10:54:15;5.85;;;4.72;;
17510;SDS011;8873;48.818;9.422;2023-08-24T10:56:42;9.02;;;4.82;;
17510;SDS011;8873;48.818;9.422;2023-08-24T10:59:20;5.60;;;4.47;;
17510;SDS011;8873;48.818;9.422;2023-08-24T11:01:55;9.98;;;4.78;;
17510;SDS011;8873;48.818;9.422;2023-08-24T11:04:24;6.95;;;4.53;;
17510;SDS011;8873;48.818;9.422;2023-08-24T11:06:53;4.97;;;4.57;;
17510;SDS011;8873;48.818;9.422;2023-08-24T11:09:21;4.85;;;4.55;;
17510;SDS011;8873;48.818;9.422;2023-08-24T11:11:58;8.10;;;4.57;;
17510;SDS011;8873;48.818;9.422;2023-08-24T11:14:30;5.10;;;4.70;;
17510;SDS011;8873;48.818;9.422;2023-08-24T11:17:00;5.13;;;4.57;;
17510;SDS011;8873;48.818;9.422;2023-08-24T11:19:31;6.25;;;4.72;;
17510;SDS011;8873;48.818;9.422;2023-08-24T11:21:58;6.35;;;4.57;;
17510;SDS011;8873;48.818;9.422;2023-08-24T11:24:26;5.75;;;4.10;;
17510;SDS011;8873;48.818;9.422;2023-08-24T11:26:54;6.05;;;4.88;;
17510;SDS011;8873;48.818;9.422;2023-08-24T11:29:25;5.13;;;4.30;;
17510;SDS011;8873;48.818;9.422;2023-08-24T11:31:53;5.20;;;4.80;;
17510;SDS011;8873;48.818;9.422;2023-08-24T11:34:21;6.05;;;4.72;;
17510;SDS011;8873;48.818;9.422;2023-08-24T11:36:49;5.78;;;4.22;;
17510;SDS011;8873;48.818;9.422;2023-08-24T11:39:17;4.65;;;4.20;;
17510;SDS011;8873;48.818;9.422;2023-08-24T11:41:56;5.72;;;5.15;;
17510;SDS011;8873;48.818;9.422;2023-08-24T11:44:24;6.07;;;5.03;;
17510;SDS011;8873;48.818;9.422;2023-08-24T11:46:57;4.80;;;4.50;;
17510;SDS011;8873;48.818;9.422;2023-08-24T11:49:26;6.38;;;4.20;;
17510;SDS011;8873;48.818;9.422;2023-08-24T11:51:54;5.00;;;4.50;;
17510;SDS011;8873;48.818;9.422;2023-08-24T11:54:21;6.10;;;4.10;;
17510;SDS011;8873;48.818;9.422;2023-08-24T11:56:49;4.53;;;4.13;;
17510;SDS011;8873;48.818;9.422;2023-08-24T11:59:17;5.78;;;4.57;;
17510;SDS011;8873;48.818;9.422;2023-08-24T12:01:45;4.88;;;4.43;;
17510;SDS011;8873;48.818;9.422;2023-08-24T12:04:25;6.55;;;5.05;;
17510;SDS011;8873;48.818;9.422;2023-08-24T12:06:53;5.00;;;4.60;;
17510;SDS011;8873;48.818;9.422;2023-08-24T12:09:21;5.75;;;4.68;;
17510;SDS011;8873;48.818;9.422;2023-08-24T12:11:55;5.68;;;5.18;;
17510;SDS011;8873;48.818;9.422;2023-08-24T12:14:23;7.68;;;4.70;;
17510;SDS011;8873;48.818;9.422;2023-08-24T12:16:54;4.65;;;4.25;;
17510;SDS011;8873;48.818;9.422;2023-08-24T12:19:25;6.88;;;5.10;;
17510;SDS011;8873;48.818;9.422;2023-08-24T12:21:53;5.28;;;4.78;;
17510;SDS011;8873;48.818;9.422;2023-08-24T12:24:21;10.77;;;4.57;;
17510;SDS011;8873;48.818;9.422;2023-08-24T12:26:57;5.55;;;5.05;;
17510;SDS011;8873;48.818;9.422;2023-08-24T12:29:26;5.55;;;4.93;;
17510;SDS011;8873;48.818;9.422;2023-08-24T12:31:56;8.60;;;4.30;;
17510;SDS011;8873;48.818;9.422;2023-08-24T12:34:25;5.72;;;5.13;;
17510;SDS011;8873;48.818;9.422;2023-08-24T12:36:53;5.20;;;4.68;;
17510;SDS011;8873;48.818;9.422;2023-08-24T12:39:21;6.00;;;4.63;;
17510;SDS011;8873;48.818;9.422;2023-08-24T12:41:49;9.85;;;4.63;;
17510;SDS011;8873;48.818;9.422;2023-08-24T12:44:18;9.70;;;4.72;;
17510;SDS011;8873;48.818;9.422;2023-08-24T12:46:46;7.60;;;4.70;;
17510;SDS011;8873;48.818;9.422;2023-08-24T12:49:13;6.88;;;4.45;;
17510;SDS011;8873;48.818;9.422;2023-08-24T12:51:44;5.80;;;4.95;;
17510;SDS011;8873;48.818;9.422;2023-08-24T12:54:16;5.13;;;4.72;;
17510;SDS011;8873;48.818;9.422;2023-08-24T12:56:44;6.05;;;4.15;;
17510;SDS011;8873;48.818;9.422;2023-08-24T12:59:12;4.55;;;4.15;;
17510;SDS011;8873;48.818;9.422;2023-08-24T13:01:40;6.63;;;4.43;;
17510;SDS011;8873;48.818;9.422;2023-08-24T13:04:08;5.15;;;4.45;;
17510;SDS011;8873;48.818;9.422;2023-08-24T13:06:38;5.07;;;4.22;;
17510;SDS011;8873;48.818;9.422;2023-08-24T13:09:08;7.82;;;4.90;;
17510;SDS011;8873;48.818;9.422;2023-08-24T13:11:38;5.88;;;5.38;;
17510;SDS011;8873;48.818;9.422;2023-08-24T13:14:06;7.95;;;4.57;;
17510;SDS011;8873;48.818;9.422;2023-08-24T13:16:39;6.32;;;4.57;;
17510;SDS011;8873;48.818;9.422;2023-08-24T13:19:08;5.15;;;4.65;;
17510;SDS011;8873;48.818;9.422;2023-08-24T13:21:39;4.72;;;3.95;;
17510;SDS011;8873;48.818;9.422;2023-08-24T13:24:08;5.05;;;4.55;;
17510;SDS011;8873;48.818;9.422;2023-08-24T13:26:36;5.30;;;4.72;;
17510;SDS011;8873;48.818;9.422;2023-08-24T13:29:06;5.15;;;4.65;;
17510;SDS011;8873;48.818;9.422;2023-08-24T13:31:37;5.00;;;4.50;;
17510;SDS011;8873;48.818;9.422;2023-08-24T13:34:05;5.20;;;4.70;;
17510;SDS011;8873;48.818;9.422;2023-08-24T13:36:34;5.10;;;4.20;;
17510;SDS011;8873;48.818;9.422;2023-08-24T13:39:04;4.85;;;4.35;;
17510;SDS011;8873;48.818;9.422;2023-08-24T13:41:33;6.93;;;4.50;;
17510;SDS011;8873;48.818;9.422;2023-08-24T13:44:03;6.75;;;4.75;;
17510;SDS011;8873;48.818;9.422;2023-08-24T13:46:31;9.73;;;4.80;;
17510;SDS011;8873;48.818;9.422;2023-08-24T13:48:59;6.78;;;4.25;;
17510;SDS011;8873;48.818;9.422;2023-08-24T13:51:27;6.65;;;4.50;;
17510;SDS011;8873;48.818;9.422;2023-08-24T13:53:55;7.97;;;4.68;;
17510;SDS011;8873;48.818;9.422;2023-08-24T13:56:23;6.70;;;4.70;;
17510;SDS011;8873;48.818;9.422;2023-08-24T13:58:52;6.80;;;4.57;;
17510;SDS011;8873;48.818;9.422;2023-08-24T14:01:20;5.28;;;4.78;;
17510;SDS011;8873;48.818;9.422;2023-08-24T14:03:48;6.82;;;5.10;;
17510;SDS011;8873;48.818;9.422;2023-08-24T14:06:16;8.88;;;4.50;;
17510;SDS011;8873;48.818;9.422;2023-08-24T14:08:44;7.47;;;4.90;;
17510;SDS011;8873;48.818;9.422;2023-08-24T14:11:14;6.97;;;4.90;;
17510;SDS011;8873;48.818;9.422;2023-08-24T14:13:43;7.05;;;4.88;;
17510;SDS011;8873;48.818;9.422;2023-08-24T14:16:13;6.93;;;4.82;;
17510;SDS011;8873;48.818;9.422;2023-08-24T14:18:43;6.25;;;4.70;;
17510;SDS011;8873;48.818;9.422;2023-08-24T14:21:15;8.05;;;4.70;;
17510;SDS011;8873;48.818;9.422;2023-08-24T14:23:50;7.22;;;4.97;;
17510;SDS011;8873;48.818;9.422;2023-08-24T14:26:20;8.88;;;4.60;;
17510;SDS011;8873;48.818;9.422;2023-08-24T14:28:53;9.38;;;5.03;;
17510;SDS011;8873;48.818;9.422;2023-08-24T14:31:23;6.00;;;5.00;;
17510;SDS011;8873;48.818;9.422;2023-08-24T14:33:55;7.63;;;4.93;;
17510;SDS011;8873;48.818;9.422;2023-08-24T14:36:22;7.00;;;5.35;;
17510;SDS011;8873;48.818;9.422;2023-08-24T14:38:50;8.30;;;4.50;;
17510;SDS011;8873;48.818;9.422;2023-08-24T14:41:19;9.32;;;5.00;;
17510;SDS011;8873;48.818;9.422;2023-08-24T14:43:47;5.55;;;4.70;;
17510;SDS011;8873;48.818;9.422;2023-08-24T14:46:14;14.20;;;6.10;;
17510;SDS011;8873;48.818;9.422;2023-08-24T14:48:43;9.98;;;4.75;;
17510;SDS011;8873;48.818;9.422;2023-08-24T14:51:11;11.00;;;5.22;;
17510;SDS011;8873;48.818;9.422;2023-08-24T14:53:39;10.93;;;5.10;;
17510;SDS011;8873;48.818;9.422;2023-08-24T14:56:07;7.10;;;4.88;;
17510;SDS011;8873;48.818;9.422;2023-08-24T14:58:36;7.47;;;5.20;;
17510;SDS011;8873;48.818;9.422;2023-08-24T15:01:04;6.43;;;5.00;;
17510;SDS011;8873;48.818;9.422;2023-08-24T15:03:31;10.55;;;4.97;;
17510;SDS011;8873;48.818;9.422;2023-08-24T15:06:01;9.38;;;4.70;;
17510;SDS011;8873;48.818;9.422;2023-08-24T15:08:30;9.68;;;4.95;;
17510;SDS011;8873;48.818;9.422;2023-08-24T15:10:59;11.50;;;5.00;;